Arlington, California
Current Conditions -  °F | °C
As of 12:53 PM on Sunday 23 Nov 2014 (Local Time) from KRAL Reporting Station
Clear Clear  
Wind Chill: 75°   Ceiling: Unl
Heat Index: 75°   Visibility: 10mi
Dew Point:   Wind: 17mph
Humidity: 7%   Direction: 20°NNE
Pressure: 30.08"   Gusts: 35mph
Location:  33.8878°N, 117.453°W
Report Text: KRAL 232053Z 02015G30KT 10SM CLR 24/M14 A3008 RMK AO2 PK WND 35030/2053 SLP174 T02391144 56021
Loading
Personal Weather Stations






























Interactive Weather Map New forecast layout! Learn more

10-Day Weather Forecast

Advertisements
Track Severe Weather on mobile